Terminal Aerodrome Forecast
Issued by NWS Twin Cities, MN

Home | Current Version | Previous Version | Graphics & Text | Print | Product List | Glossary On
Versions: 1 2 3 4 5 6 7 8 9 10 11 12 13 14 15
596
FTUS43 KMPX 171124
TAFSTC
TAF
KSTC 171124Z 1712/1812 10009KT P6SM SCT150
     FM172100 11010KT P6SM VCSH SCT060 BKN250
     FM180100 10009KT P6SM BKN250=

USA.gov is the U.S. government's official web portal to all federal, state and local government web resources and services.